Home   Weather   India   Udupi   Past weeks
Flag for India

Past Weather in Udupi, Karnataka, India — Yesterday and Last 2 Weeks

Currently: 84 °F. Clear. (Weather station: Mangalore / Bajpe, India). See more current weather

Past Weather in Udupi — Graph

°F

Udupi Temperature Yesterday

Maximum temperature yesterday: 97 °F (at 2:00 pm)
Minimum temperature yesterday: 73 °F (at 6:30 am)
Average temperature yesterday: 84 °F

High & Low Weather Summary for the Past Weeks

 TemperatureHumidityPressure
High97 °F (Mar 4, 2:00 pm)100% (Mar 2, 10:30 am)29.98 "Hg (Mar 2, 10:30 am)
Low70 °F (Feb 20, 3:30 am)16% (Mar 4, 12:30 pm)29.71 "Hg (Feb 27, 3:30 pm)
Average82 °F69%29.85 "Hg
* Reported Feb 18 5:30 pm — Mar 5 6:00 pm, Udupi. Weather by CustomWeather, © 2021

Note: Actual official high and low records may vary slightly from our data, if they occured in-between our weather recording intervals... More about our weather records

Udupi Weather History for the Previous 24 Hours

Scroll right to see more
 ConditionsComfort  
Time TempWeatherWind HumidityBarometerVisibility
6:00 pm
Fri, Mar 5
88 °FClear.7 mph59%29.83 "Hg4 mi
5:30 pm90 °FClear.8 mph52%29.80 "Hg4 mi
5:00 pm90 °FPassing clouds.9 mph52%29.80 "Hg4 mi
4:30 pm91 °FPassing clouds.8 mph49%29.80 "Hg4 mi
4:00 pm91 °FPassing clouds.12 mph49%29.80 "Hg4 mi
3:30 pm91 °FPassing clouds.10 mph49%29.80 "Hg4 mi
3:00 pm91 °FPassing clouds.10 mph49%29.80 "Hg4 mi
2:30 pm91 °FPassing clouds.9 mph49%29.83 "Hg5 mi
2:00 pm93 °FPassing clouds.10 mph47%29.83 "Hg5 mi
1:30 pm93 °FPassing clouds.6 mph49%29.86 "Hg5 mi
1:00 pm93 °FPassing clouds.5 mph32%29.86 "Hg5 mi
12:30 pm91 °FPassing clouds.6 mph36%29.89 "Hg5 mi
12:00 pm90 °FPassing clouds.3 mph38%29.92 "Hg5 mi
11:30 am88 °FClear.5 mph43%29.92 "Hg5 mi
11:00 am86 °FClear.3 mph46%29.95 "Hg5 mi
10:30 am84 °FClear.5 mph48%29.95 "Hg5 mi
10:00 am82 °FClear.6 mph55%29.95 "Hg4 mi
9:30 am81 °FClear.5 mph58%29.95 "Hg4 mi
9:00 am79 °FClear.6 mph61%29.95 "Hg4 mi
8:30 am77 °FHaze.7 mph69%29.95 "Hg3 mi
8:00 am75 °FFog.6 mph74%29.92 "Hg2 mi
7:30 am73 °FFog.7 mph78%29.92 "Hg2 mi
7:00 am73 °FFog.6 mph78%29.89 "Hg2 mi
6:30 am73 °FFog.5 mph78%29.89 "Hg3 mi
6:00 am73 °FClear.No wind78%29.86 "Hg4 mi
5:30 am75 °FClear.No wind74%29.86 "Hg4 mi
4:30 am75 °FClear.No wind74%29.86 "Hg4 mi
3:30 am77 °FClear.3 mph69%29.86 "Hg4 mi
3:00 am75 °FClear.No wind74%29.86 "Hg4 mi
2:30 am77 °FClear.No wind69%29.86 "Hg4 mi
2:00 am79 °FPassing clouds.3 mph70%29.86 "Hg4 mi
1:30 am79 °FPassing clouds.3 mph70%29.86 "Hg4 mi
12:30 am79 °FPassing clouds.3 mph70%29.89 "Hg4 mi
12:00 am81 °FPassing clouds.3 mph66%29.89 "Hg4 mi
11:30 pm
Thu, Mar 4
81 °FPassing clouds.No wind70%29.89 "Hg4 mi
11:00 pm81 °FClear.No wind70%29.89 "Hg4 mi
10:30 pm81 °FClear.No wind70%29.89 "Hg4 mi
10:00 pm82 °FClear.No wind66%29.89 "Hg4 mi
9:30 pm82 °FClear.No wind66%29.89 "Hg4 mi
8:30 pm82 °FClear.No wind70%29.86 "Hg4 mi
8:00 pm84 °FClear.No wind62%29.83 "Hg4 mi
Weather by CustomWeather, © 2021

See weather overview